Aviation Digital Data Service (ADDS)

Output produced by METARs form (2344 UTC 26 May 2018)
found at http://aviationweather.gov/adds/metars/
 
KFDY 262324Z 2700/2724 VRB04KT P6SM BKN100 
     TEMPO 2706/2709 3SM BR 
     FM270900 VRB03KT 3SM BR SCT008 
     TEMPO 2709/2712 2SM BR BKN008 
     FM271400 30006KT P6SM FEW250